createdAt,value
2023-02-20T00:00:08.294Z,3.10
2023-02-20T00:01:08.255Z,2.60
2023-02-20T00:02:08.299Z,2.90
2023-02-20T00:03:08.220Z,3.00
2023-02-20T00:04:08.259Z,2.70
2023-02-20T00:05:08.197Z,2.80
2023-02-20T00:06:08.221Z,2.90
2023-02-20T00:07:08.186Z,3.20
2023-02-20T00:08:08.194Z,3.00
2023-02-20T00:09:08.202Z,2.90
2023-02-20T00:10:08.187Z,3.00
2023-02-20T00:11:08.137Z,2.80
2023-02-20T00:12:08.147Z,3.20
2023-02-20T00:13:08.114Z,3.30
2023-02-20T00:14:08.134Z,3.50
2023-02-20T00:15:08.106Z,3.30
2023-02-20T00:16:08.220Z,3.00
2023-02-20T00:17:08.152Z,3.20
2023-02-20T00:18:08.061Z,3.60
2023-02-20T00:19:08.063Z,3.30
2023-02-20T00:20:08.058Z,3.50
2023-02-20T00:21:08.054Z,3.60
2023-02-20T00:22:08.213Z,4.00
2023-02-20T00:23:08.032Z,3.90
2023-02-20T00:24:08.007Z,3.70
2023-02-20T00:25:08.122Z,3.90
2023-02-20T00:26:07.994Z,3.80
2023-02-20T00:27:07.992Z,4.30
2023-02-20T00:28:07.953Z,4.00
2023-02-20T00:29:07.955Z,4.60
2023-02-20T00:30:07.983Z,4.60
2023-02-20T00:31:07.999Z,4.20
2023-02-20T00:32:07.928Z,4.70
2023-02-20T00:33:07.920Z,4.60
2023-02-20T00:34:07.875Z,4.90
2023-02-20T00:35:08.209Z,4.30
2023-02-20T00:36:08.015Z,4.90
2023-02-20T00:37:07.864Z,5.10
2023-02-20T00:38:07.836Z,5.10
2023-02-20T00:39:07.867Z,5.00
2023-02-20T00:40:07.850Z,4.80
2023-02-20T00:41:08.148Z,4.90
2023-02-20T00:42:07.796Z,5.00
2023-02-20T00:43:07.808Z,4.50
2023-02-20T00:44:07.772Z,4.60
2023-02-20T00:45:07.802Z,4.60
2023-02-20T00:46:07.772Z,4.80
2023-02-20T00:47:07.771Z,5.30
2023-02-20T00:48:07.727Z,4.70
2023-02-20T00:49:07.730Z,5.30
2023-02-20T00:50:07.771Z,5.40
2023-02-20T00:51:07.725Z,4.90
2023-02-20T00:52:07.704Z,5.00
2023-02-20T00:53:07.688Z,4.60
2023-02-20T00:54:07.650Z,5.10
2023-02-20T00:55:07.676Z,5.50
2023-02-20T00:56:07.667Z,5.90
2023-02-20T00:57:07.667Z,6.70
2023-02-20T00:58:07.624Z,6.60
2023-02-20T00:59:07.631Z,6.60
2023-02-20T01:00:07.593Z,6.70
2023-02-20T01:01:07.618Z,6.00
2023-02-20T01:02:07.576Z,6.60
2023-02-20T01:03:07.589Z,6.50
2023-02-20T01:04:07.554Z,6.40
2023-02-20T01:05:07.544Z,6.40
2023-02-20T01:06:07.595Z,6.90
2023-02-20T01:07:07.534Z,6.40
2023-02-20T01:08:07.505Z,6.90
2023-02-20T01:09:07.525Z,7.20
2023-02-20T01:10:07.474Z,6.90
2023-02-20T01:11:07.514Z,6.60
2023-02-20T01:12:07.470Z,7.00
2023-02-20T01:13:07.467Z,7.30
2023-02-20T01:14:07.426Z,6.60
2023-02-20T01:15:07.433Z,6.50
2023-02-20T01:16:07.827Z,6.70
2023-02-20T01:17:07.797Z,7.00
2023-02-20T01:18:07.375Z,6.50
2023-02-20T01:19:08.101Z,6.60
2023-02-20T01:20:07.374Z,6.90
2023-02-20T01:21:07.368Z,6.90
2023-02-20T01:22:07.343Z,6.80
2023-02-20T01:23:07.351Z,6.80
2023-02-20T01:24:07.311Z,7.00
2023-02-20T01:25:07.333Z,6.90
2023-02-20T01:26:07.322Z,6.60
2023-02-20T01:27:07.304Z,6.70
2023-02-20T01:28:07.282Z,6.20
2023-02-20T01:29:07.301Z,6.70
2023-02-20T01:30:07.345Z,6.50
2023-02-20T01:31:07.535Z,6.50
2023-02-20T01:32:07.308Z,7.00
2023-02-20T01:33:07.268Z,7.10
2023-02-20T01:34:07.233Z,6.70
2023-02-20T01:35:07.211Z,7.00
2023-02-20T01:36:07.192Z,6.80
2023-02-20T01:37:07.201Z,6.90
2023-02-20T01:38:07.177Z,6.90
2023-02-20T01:39:07.186Z,6.90
2023-02-20T01:40:07.134Z,7.00
2023-02-20T01:41:07.156Z,7.30
2023-02-20T01:42:07.136Z,6.80
2023-02-20T01:43:07.129Z,6.80
2023-02-20T01:44:07.100Z,6.80
2023-02-20T01:45:07.105Z,7.10
2023-02-20T01:46:07.074Z,7.00
2023-02-20T01:47:07.105Z,6.40
2023-02-20T01:48:07.073Z,7.60
2023-02-20T01:49:07.076Z,6.90
2023-02-20T01:50:07.024Z,7.00
2023-02-20T01:51:07.042Z,6.50
2023-02-20T01:52:07.012Z,6.50
2023-02-20T01:53:07.022Z,6.60
2023-02-20T01:54:07.000Z,7.00
2023-02-20T01:55:07.002Z,6.80
2023-02-20T01:56:06.963Z,7.10
2023-02-20T01:57:06.988Z,7.10
2023-02-20T01:58:07.552Z,7.80
2023-02-20T01:59:06.975Z,7.60
2023-02-20T02:00:06.919Z,7.70
2023-02-20T02:01:06.953Z,7.90
2023-02-20T02:02:06.946Z,8.20
2023-02-20T02:03:06.933Z,8.30
2023-02-20T02:04:06.874Z,7.80
2023-02-20T02:05:06.893Z,8.10
2023-02-20T02:06:06.872Z,8.50
2023-02-20T02:07:06.883Z,8.30
2023-02-20T02:08:07.320Z,7.90
2023-02-20T02:09:06.876Z,8.80
2023-02-20T02:10:06.799Z,8.40
2023-02-20T02:11:06.833Z,8.20
2023-02-20T02:12:06.790Z,8.30
2023-02-20T02:13:06.836Z,8.50
2023-02-20T02:14:06.949Z,8.80
2023-02-20T02:15:06.774Z,9.20
2023-02-20T02:16:06.767Z,8.70
2023-02-20T02:17:06.739Z,9.10
2023-02-20T02:18:06.809Z,9.40
2023-02-20T02:19:06.737Z,9.10
2023-02-20T02:20:06.706Z,9.10
2023-02-20T02:21:06.901Z,9.00
2023-02-20T02:22:06.668Z,9.00
2023-02-20T02:23:06.677Z,10.00
2023-02-20T02:24:06.645Z,9.50
2023-02-20T02:25:06.652Z,9.30
2023-02-20T02:26:06.642Z,9.00
2023-02-20T02:27:06.646Z,8.80
2023-02-20T02:28:06.605Z,8.50
2023-02-20T02:29:06.601Z,9.00
2023-02-20T02:30:06.588Z,8.80
2023-02-20T02:31:06.712Z,9.30
2023-02-20T02:32:06.611Z,9.10
2023-02-20T02:33:06.585Z,9.70
2023-02-20T02:34:06.522Z,10.00
2023-02-20T02:35:06.544Z,9.80
2023-02-20T02:36:06.501Z,9.20
2023-02-20T02:37:06.546Z,9.10
2023-02-20T02:38:06.702Z,9.30
2023-02-20T02:39:06.708Z,8.70
2023-02-20T02:40:06.453Z,9.10
2023-02-20T02:41:06.469Z,9.10
2023-02-20T02:42:06.454Z,9.10
2023-02-20T02:43:06.460Z,8.50
2023-02-20T02:44:06.420Z,10.10
2023-02-20T02:45:06.464Z,9.90
2023-02-20T02:46:07.117Z,9.90
2023-02-20T02:47:06.430Z,8.40
2023-02-20T02:48:06.382Z,7.40
2023-02-20T02:49:06.371Z,8.30
2023-02-20T02:50:06.364Z,9.00
2023-02-20T02:51:06.378Z,10.60
2023-02-20T02:52:06.319Z,9.60
2023-02-20T02:53:06.668Z,10.60
2023-02-20T02:54:06.311Z,10.40
2023-02-20T02:55:06.323Z,9.30
2023-02-20T02:56:06.286Z,8.30
2023-02-20T02:57:06.294Z,7.80
2023-02-20T02:58:06.278Z,8.10
2023-02-20T02:59:06.649Z,7.80
2023-02-20T03:00:06.247Z,8.10
2023-02-20T03:01:06.288Z,7.60
2023-02-20T03:02:06.245Z,8.50
2023-02-20T03:03:06.218Z,8.10
2023-02-20T03:04:06.212Z,8.00
2023-02-20T03:05:06.210Z,7.90
2023-02-20T03:06:06.270Z,8.50
2023-02-20T03:07:06.198Z,8.00
2023-02-20T03:08:06.160Z,8.20
2023-02-20T03:09:06.228Z,9.00
2023-02-20T03:10:06.130Z,8.30
2023-02-20T03:11:06.147Z,8.60
2023-02-20T03:12:06.104Z,9.40
2023-02-20T03:13:06.109Z,8.30
2023-02-20T03:14:06.103Z,8.40
2023-02-20T03:15:06.244Z,7.90
2023-02-20T03:16:06.170Z,8.80
2023-02-20T03:17:06.074Z,8.90
2023-02-20T03:18:06.159Z,8.50
2023-02-20T03:19:06.160Z,9.50
2023-02-20T03:20:06.175Z,8.80
2023-02-20T03:21:06.033Z,10.30
2023-02-20T03:22:05.995Z,11.50
2023-02-20T03:23:06.029Z,11.30
2023-02-20T03:24:05.970Z,12.00
2023-02-20T03:25:06.043Z,12.50
2023-02-20T03:26:05.974Z,11.80
2023-02-20T03:27:05.965Z,12.50
2023-02-20T03:28:05.954Z,12.30
2023-02-20T03:29:05.948Z,13.00
2023-02-20T03:30:05.959Z,13.70
2023-02-20T03:31:05.959Z,13.20
2023-02-20T03:32:06.187Z,12.90
2023-02-20T03:33:05.939Z,12.30
2023-02-20T03:34:05.875Z,11.30
2023-02-20T03:35:05.873Z,10.90
2023-02-20T03:36:05.859Z,10.60
2023-02-20T03:37:05.856Z,9.20
2023-02-20T03:38:05.833Z,9.90
2023-02-20T03:39:05.844Z,9.40
2023-02-20T03:40:05.807Z,9.80
2023-02-20T03:41:05.847Z,9.40
2023-02-20T03:42:05.871Z,9.40
2023-02-20T03:43:05.794Z,8.90
2023-02-20T03:44:05.760Z,10.00
2023-02-20T03:45:06.256Z,10.50
2023-02-20T03:46:05.804Z,9.30
2023-02-20T03:47:05.747Z,9.90
2023-02-20T03:48:05.729Z,9.70
2023-02-20T03:49:05.742Z,9.70
2023-02-20T03:50:05.693Z,9.80
2023-02-20T03:51:05.711Z,10.60
2023-02-20T03:52:05.695Z,10.00
2023-02-20T03:53:05.701Z,9.60
2023-02-20T03:54:05.642Z,9.50
2023-02-20T03:55:05.656Z,10.10
2023-02-20T03:56:05.639Z,10.00
2023-02-20T03:57:05.643Z,11.00
2023-02-20T03:58:05.631Z,11.60
2023-02-20T03:59:05.621Z,9.80
2023-02-20T04:00:05.603Z,11.50
2023-02-20T04:01:05.783Z,11.20
2023-02-20T04:02:05.564Z,10.10
2023-02-20T04:03:05.590Z,9.80
2023-02-20T04:04:05.535Z,9.00
2023-02-20T04:05:05.555Z,9.50
2023-02-20T04:06:05.514Z,10.20
2023-02-20T04:07:05.522Z,10.00
2023-02-20T04:08:05.510Z,10.10
2023-02-20T04:09:05.512Z,9.50
2023-02-20T04:10:07.003Z,9.20
2023-02-20T04:11:05.487Z,9.70
2023-02-20T04:12:05.842Z,10.40
2023-02-20T04:13:05.449Z,10.90
2023-02-20T04:14:05.417Z,10.10
2023-02-20T04:15:06.065Z,9.80
2023-02-20T04:16:05.403Z,10.50
2023-02-20T04:17:05.410Z,10.50
2023-02-20T04:18:05.389Z,10.10
2023-02-20T04:19:05.400Z,10.00
2023-02-20T04:20:05.352Z,9.50
2023-02-20T04:21:05.495Z,9.90
2023-02-20T04:22:05.321Z,10.20
2023-02-20T04:23:05.344Z,9.20
2023-02-20T04:24:05.358Z,9.70
2023-02-20T04:25:05.415Z,10.40
2023-02-20T04:26:05.415Z,10.40
2023-02-20T04:27:05.288Z,9.30
2023-02-20T04:28:05.277Z,9.50
2023-02-20T04:29:05.289Z,10.70
2023-02-20T04:30:05.308Z,11.40
2023-02-20T04:31:05.294Z,11.30
2023-02-20T04:32:05.269Z,10.40
2023-02-20T04:33:05.242Z,11.50
2023-02-20T04:34:05.218Z,11.90
2023-02-20T04:35:05.196Z,11.40
2023-02-20T04:36:05.219Z,11.50
2023-02-20T04:37:05.157Z,11.00
2023-02-20T04:38:05.172Z,10.30
2023-02-20T04:39:05.150Z,9.40
2023-02-20T04:40:05.154Z,9.80
2023-02-20T04:41:05.111Z,10.00
2023-02-20T04:42:05.124Z,10.60
2023-02-20T04:43:05.114Z,10.20
2023-02-20T04:44:05.095Z,10.30
2023-02-20T04:45:05.081Z,9.50
2023-02-20T04:46:05.084Z,9.80
2023-02-20T04:47:05.050Z,10.00
2023-02-20T04:48:05.057Z,9.80
2023-02-20T04:49:05.029Z,10.20
2023-02-20T04:50:05.030Z,9.80
2023-02-20T04:51:05.005Z,10.30
2023-02-20T04:52:05.013Z,10.00
2023-02-20T04:53:04.970Z,10.30
2023-02-20T04:54:05.004Z,10.40
2023-02-20T04:55:04.951Z,9.00
2023-02-20T04:56:04.968Z,8.70
2023-02-20T04:57:04.990Z,10.40
2023-02-20T04:58:04.969Z,9.90
2023-02-20T04:59:04.902Z,10.30
2023-02-20T05:00:04.926Z,10.30
2023-02-20T05:01:04.911Z,10.50
2023-02-20T05:02:04.910Z,11.00
2023-02-20T05:03:04.856Z,9.90
2023-02-20T05:04:04.875Z,10.90
2023-02-20T05:05:04.846Z,10.00
2023-02-20T05:06:04.836Z,10.40
2023-02-20T05:07:04.799Z,11.00
2023-02-20T05:08:04.860Z,10.60
2023-02-20T05:09:04.813Z,10.70
2023-02-20T05:10:04.817Z,10.70
2023-02-20T05:11:04.766Z,11.10
2023-02-20T05:12:04.817Z,11.40
2023-02-20T05:13:04.755Z,10.40
2023-02-20T05:14:04.761Z,10.30
2023-02-20T05:15:04.726Z,11.00
2023-02-20T05:16:04.809Z,10.70
2023-02-20T05:17:04.697Z,11.00
2023-02-20T05:18:04.717Z,10.00
2023-02-20T05:19:04.668Z,9.80
2023-02-20T05:20:04.680Z,10.30
2023-02-20T05:21:04.679Z,10.30
2023-02-20T05:22:04.676Z,10.30
2023-02-20T05:23:04.683Z,11.40
2023-02-20T05:24:06.912Z,10.30
2023-02-20T05:25:04.632Z,11.00
2023-02-20T05:26:04.616Z,10.20
2023-02-20T05:27:04.625Z,9.90
2023-02-20T05:28:04.609Z,11.10
2023-02-20T05:29:04.576Z,10.60
2023-02-20T05:30:04.586Z,10.50
2023-02-20T05:31:04.571Z,10.40
2023-02-20T05:32:04.641Z,10.40
2023-02-20T05:33:04.535Z,10.90
2023-02-20T05:34:04.546Z,10.00
2023-02-20T05:35:04.500Z,11.10
2023-02-20T05:36:04.515Z,11.50
2023-02-20T05:37:04.477Z,10.40
2023-02-20T05:38:04.486Z,11.40
2023-02-20T05:39:04.457Z,11.20
2023-02-20T05:40:04.458Z,10.10
2023-02-20T05:41:04.439Z,10.50
2023-02-20T05:42:04.443Z,10.70
2023-02-20T05:43:04.394Z,11.20
2023-02-20T05:44:04.445Z,10.20
2023-02-20T05:45:04.407Z,10.40
2023-02-20T05:46:04.465Z,10.00
2023-02-20T05:47:04.386Z,9.70
2023-02-20T05:48:04.396Z,10.20
2023-02-20T05:49:04.342Z,10.70
2023-02-20T05:50:04.357Z,10.00
2023-02-20T05:51:04.336Z,10.60
2023-02-20T05:52:04.344Z,10.10
2023-02-20T05:53:04.293Z,9.90
2023-02-20T05:54:04.324Z,9.90
2023-02-20T05:55:04.272Z,10.00
2023-02-20T05:56:04.297Z,10.40
2023-02-20T05:57:04.271Z,10.80
2023-02-20T05:58:04.604Z,10.80
2023-02-20T05:59:04.236Z,10.40
2023-02-20T06:00:04.257Z,10.50
2023-02-20T06:01:04.206Z,10.70
2023-02-20T06:02:04.241Z,10.30
2023-02-20T06:03:04.190Z,11.00
2023-02-20T06:04:04.337Z,9.90
2023-02-20T06:05:04.172Z,10.40
2023-02-20T06:06:04.171Z,10.40
2023-02-20T06:07:04.133Z,11.00
2023-02-20T06:08:04.186Z,11.90
2023-02-20T06:09:04.111Z,11.70
2023-02-20T06:10:04.132Z,10.80
2023-02-20T06:11:04.116Z,10.10
2023-02-20T06:12:04.100Z,9.90
2023-02-20T06:13:04.142Z,10.30
2023-02-20T06:14:04.099Z,10.00
2023-02-20T06:15:04.063Z,11.90
2023-02-20T06:16:04.092Z,10.90
2023-02-20T06:17:04.050Z,10.80
2023-02-20T06:18:04.038Z,10.90
2023-02-20T06:19:04.015Z,10.40
2023-02-20T06:20:04.034Z,11.60
2023-02-20T06:21:03.991Z,10.70
2023-02-20T06:22:04.011Z,11.40
2023-02-20T06:23:03.979Z,11.00
2023-02-20T06:24:04.188Z,11.20
2023-02-20T06:25:03.931Z,10.90
2023-02-20T06:26:03.962Z,10.90
2023-02-20T06:27:03.927Z,10.80
2023-02-20T06:28:03.953Z,13.50
2023-02-20T06:29:03.889Z,12.70
2023-02-20T06:30:03.928Z,11.80
2023-02-20T06:31:03.921Z,12.20
2023-02-20T06:32:04.064Z,12.30
2023-02-20T06:33:04.021Z,12.90
2023-02-20T06:34:03.886Z,13.30
2023-02-20T06:35:03.838Z,13.60
2023-02-20T06:36:03.843Z,12.80
2023-02-20T06:37:03.803Z,12.80
2023-02-20T06:38:03.825Z,12.60
2023-02-20T06:39:03.782Z,12.50
2023-02-20T06:40:03.805Z,12.10
2023-02-20T06:41:03.788Z,11.70
2023-02-20T06:42:03.798Z,11.60
2023-02-20T06:43:03.743Z,12.20
2023-02-20T06:44:04.423Z,11.30
2023-02-20T06:45:03.755Z,12.50
2023-02-20T06:46:03.726Z,14.00
2023-02-20T06:47:03.687Z,13.70
2023-02-20T06:48:03.702Z,13.10
2023-02-20T06:49:03.699Z,12.60
2023-02-20T06:50:03.720Z,12.10
2023-02-20T06:51:03.661Z,12.00
2023-02-20T06:52:04.377Z,12.50
2023-02-20T06:53:03.687Z,11.60
2023-02-20T06:54:03.648Z,12.30
2023-02-20T06:55:03.597Z,12.20
2023-02-20T06:56:03.628Z,11.80
2023-02-20T06:57:03.585Z,11.70
2023-02-20T06:58:03.594Z,11.50
2023-02-20T06:59:03.552Z,12.00
2023-02-20T07:00:03.582Z,12.40
2023-02-20T07:01:03.555Z,12.60
2023-02-20T07:02:03.578Z,12.50
2023-02-20T07:03:03.540Z,12.90
2023-02-20T07:04:03.569Z,12.20
2023-02-20T07:05:03.652Z,13.00
2023-02-20T07:06:03.491Z,12.50
2023-02-20T07:07:03.668Z,15.10
2023-02-20T07:08:03.522Z,12.70
2023-02-20T07:09:03.459Z,13.30
2023-02-20T07:10:03.579Z,12.80
2023-02-20T07:11:03.581Z,11.70
2023-02-20T07:12:03.429Z,12.80
2023-02-20T07:13:03.390Z,12.90
2023-02-20T07:14:03.431Z,14.50
2023-02-20T07:15:03.380Z,14.80
2023-02-20T07:16:03.423Z,14.40
2023-02-20T07:17:03.622Z,13.70
2023-02-20T07:18:03.366Z,12.70
2023-02-20T07:19:03.333Z,13.70
2023-02-20T07:20:03.344Z,13.80
2023-02-20T07:21:03.323Z,12.60
2023-02-20T07:22:03.322Z,11.90
2023-02-20T07:23:03.306Z,12.00
2023-02-20T07:24:03.290Z,12.40
2023-02-20T07:25:03.368Z,12.00
2023-02-20T07:26:03.300Z,12.30
2023-02-20T07:27:03.256Z,12.60
2023-02-20T07:28:03.604Z,12.50
2023-02-20T07:29:03.213Z,11.30
2023-02-20T07:30:03.277Z,12.80
2023-02-20T07:31:03.265Z,13.10
2023-02-20T07:32:03.302Z,12.30
2023-02-20T07:33:03.189Z,12.20
2023-02-20T07:34:03.192Z,13.60
2023-02-20T07:35:07.538Z,11.90
2023-02-20T07:36:04.161Z,11.50
2023-02-20T07:37:03.126Z,12.50
2023-02-20T07:38:03.165Z,13.30
2023-02-20T07:39:03.120Z,12.60
2023-02-20T07:40:03.121Z,12.80
2023-02-20T07:41:03.076Z,11.50
2023-02-20T07:42:03.111Z,11.90
2023-02-20T07:43:03.055Z,12.00
2023-02-20T07:44:03.064Z,12.20
2023-02-20T07:45:03.422Z,11.40
2023-02-20T07:46:03.100Z,10.90
2023-02-20T07:47:03.024Z,12.50
2023-02-20T07:48:03.025Z,11.60
2023-02-20T07:49:02.996Z,11.30
2023-02-20T07:50:03.008Z,10.80
2023-02-20T07:51:02.983Z,10.80
2023-02-20T07:52:03.007Z,11.40
2023-02-20T07:53:03.114Z,11.00
2023-02-20T07:54:03.237Z,10.20
2023-02-20T07:55:02.917Z,10.80
2023-02-20T07:56:02.964Z,10.50
2023-02-20T07:57:02.913Z,10.10
2023-02-20T07:58:02.941Z,11.70
2023-02-20T07:59:02.882Z,10.50
2023-02-20T08:00:02.907Z,10.30
2023-02-20T08:01:02.848Z,10.40
2023-02-20T08:02:02.873Z,10.30
2023-02-20T08:03:02.859Z,10.70
2023-02-20T08:04:02.850Z,9.90
2023-02-20T08:05:02.880Z,10.90
2023-02-20T08:06:02.817Z,10.20
2023-02-20T08:07:03.262Z,10.40
2023-02-20T08:08:02.809Z,9.90
2023-02-20T08:09:02.763Z,10.00
2023-02-20T08:10:02.763Z,11.30
2023-02-20T08:11:09.603Z,10.00
2023-02-20T08:12:03.762Z,9.80
2023-02-20T08:13:03.685Z,9.90
2023-02-20T08:14:02.725Z,9.90
2023-02-20T08:15:02.705Z,10.00
2023-02-20T08:16:02.744Z,9.60
2023-02-20T08:17:02.661Z,10.30
2023-02-20T08:18:06.015Z,10.00
2023-02-20T08:19:02.681Z,10.20
2023-02-20T08:20:02.670Z,9.80
2023-02-20T08:21:02.625Z,9.50
2023-02-20T08:22:02.648Z,9.70
2023-02-20T08:23:02.748Z,9.20
2023-02-20T08:24:02.618Z,9.50
2023-02-20T08:25:02.651Z,9.40
2023-02-20T08:26:02.682Z,9.70
2023-02-20T08:27:02.557Z,9.60
2023-02-20T08:28:02.564Z,9.40
2023-02-20T08:29:02.552Z,8.90
2023-02-20T08:30:02.562Z,8.90
2023-02-20T08:31:02.511Z,8.70
2023-02-20T08:32:02.771Z,8.50
2023-02-20T08:33:02.509Z,8.90
2023-02-20T08:34:02.503Z,9.50
2023-02-20T08:35:02.453Z,9.50
2023-02-20T08:36:02.544Z,9.40
2023-02-20T08:37:02.453Z,9.40
2023-02-20T08:38:03.645Z,9.20
2023-02-20T08:39:02.425Z,8.70
2023-02-20T08:40:02.440Z,8.20
2023-02-20T08:41:02.424Z,8.20
2023-02-20T08:42:02.429Z,8.80
2023-02-20T08:43:02.413Z,8.20
2023-02-20T08:44:02.396Z,7.50
2023-02-20T08:45:02.342Z,8.00
2023-02-20T08:46:02.562Z,8.00
2023-02-20T08:47:02.341Z,7.60
2023-02-20T08:48:02.354Z,6.80
2023-02-20T08:49:02.316Z,7.10
2023-02-20T08:50:02.309Z,6.80
2023-02-20T08:51:02.390Z,7.20
2023-02-20T08:52:02.286Z,7.40
2023-02-20T08:53:02.315Z,7.40
2023-02-20T08:54:02.278Z,8.00
2023-02-20T08:55:02.294Z,7.60
2023-02-20T08:56:02.244Z,7.30
2023-02-20T08:57:02.241Z,7.00
2023-02-20T08:58:02.223Z,7.20
2023-02-20T08:59:02.222Z,7.30
2023-02-20T09:00:02.211Z,7.00
2023-02-20T09:01:02.256Z,6.90
2023-02-20T09:02:02.183Z,6.40
2023-02-20T09:03:02.220Z,6.90
2023-02-20T09:04:02.136Z,6.10
2023-02-20T09:05:02.183Z,6.30
2023-02-20T09:06:02.330Z,6.20
2023-02-20T09:07:02.335Z,5.70
2023-02-20T09:08:02.129Z,5.90
2023-02-20T09:09:02.112Z,5.80
2023-02-20T09:10:02.070Z,5.70
2023-02-20T09:11:02.098Z,5.70
2023-02-20T09:12:02.062Z,6.00
2023-02-20T09:13:02.076Z,5.80
2023-02-20T09:14:02.033Z,5.40
2023-02-20T09:15:02.059Z,5.30
2023-02-20T09:16:02.006Z,5.70
2023-02-20T09:17:02.041Z,5.40
2023-02-20T09:18:02.960Z,5.70
2023-02-20T09:19:01.984Z,5.90
2023-02-20T09:20:01.974Z,5.20
2023-02-20T09:21:02.007Z,5.80
2023-02-20T09:22:01.939Z,5.40
2023-02-20T09:23:01.967Z,4.90
2023-02-20T09:24:01.922Z,4.60
2023-02-20T09:25:01.925Z,4.90
2023-02-20T09:26:01.893Z,5.60
2023-02-20T09:27:01.918Z,5.10
2023-02-20T09:28:01.869Z,4.80
2023-02-20T09:29:01.872Z,5.70
2023-02-20T09:30:01.912Z,5.50
2023-02-20T09:31:01.879Z,4.30
2023-02-20T09:32:01.899Z,4.40
2023-02-20T09:33:01.856Z,4.10
2023-02-20T09:34:01.823Z,4.70
2023-02-20T09:35:01.828Z,4.40
2023-02-20T09:36:01.775Z,4.00
2023-02-20T09:37:02.399Z,4.50
2023-02-20T09:38:01.829Z,4.20
2023-02-20T09:39:01.806Z,4.20
2023-02-20T09:40:01.777Z,4.20
2023-02-20T09:41:01.743Z,3.70
2023-02-20T09:42:01.712Z,3.60
2023-02-20T09:43:01.731Z,3.90
2023-02-20T09:44:01.692Z,3.60
2023-02-20T09:45:01.798Z,4.00
2023-02-20T09:46:01.698Z,3.80
2023-02-20T09:47:01.804Z,3.40
2023-02-20T09:48:01.709Z,3.10
2023-02-20T09:49:01.759Z,3.70
2023-02-20T09:50:01.644Z,4.00
2023-02-20T09:51:01.654Z,3.70
2023-02-20T09:52:01.600Z,3.40
2023-02-20T09:53:01.953Z,3.40
2023-02-20T09:54:02.155Z,3.40
2023-02-20T09:55:01.592Z,3.30
2023-02-20T09:56:01.972Z,3.30
2023-02-20T09:57:01.594Z,3.70
2023-02-20T09:58:01.533Z,3.70
2023-02-20T09:59:01.542Z,3.50
2023-02-20T10:00:04.654Z,3.40
2023-02-20T10:01:01.539Z,3.40
2023-02-20T10:02:01.583Z,3.70
2023-02-20T10:03:01.639Z,3.70
2023-02-20T10:04:01.489Z,3.40
2023-02-20T10:05:02.086Z,3.40
2023-02-20T10:06:01.459Z,3.70
2023-02-20T10:07:01.455Z,3.10
2023-02-20T10:08:01.483Z,3.40
2023-02-20T10:09:01.450Z,3.10
2023-02-20T10:10:01.388Z,3.60
2023-02-20T10:11:01.438Z,3.20
2023-02-20T10:12:01.896Z,4.10
2023-02-20T10:13:01.416Z,4.00
2023-02-20T10:14:01.344Z,3.90
2023-02-20T10:15:01.361Z,3.30
2023-02-20T10:16:01.344Z,2.90
2023-02-20T10:17:01.354Z,3.10
2023-02-20T10:18:01.318Z,3.40
2023-02-20T10:19:01.311Z,2.90
2023-02-20T10:20:01.282Z,3.10
2023-02-20T10:21:01.283Z,3.20
2023-02-20T10:22:01.352Z,3.30
2023-02-20T10:23:01.297Z,3.20
2023-02-20T10:24:05.908Z,3.10
2023-02-20T10:25:02.260Z,3.00
2023-02-20T10:26:01.213Z,2.80
2023-02-20T10:27:01.226Z,2.80
2023-02-20T10:28:01.671Z,3.00
2023-02-20T10:29:01.564Z,2.60
2023-02-20T10:30:01.184Z,2.80
2023-02-20T10:31:01.219Z,2.70
2023-02-20T10:32:01.226Z,2.90
2023-02-20T10:33:01.153Z,2.50
2023-02-20T10:34:01.177Z,2.60
2023-02-20T10:35:01.124Z,2.90
2023-02-20T10:36:03.249Z,3.20
2023-02-20T10:37:01.097Z,2.60
2023-02-20T10:38:01.074Z,2.70
2023-02-20T10:39:01.100Z,2.60
2023-02-20T10:40:01.094Z,3.20
2023-02-20T10:41:01.087Z,2.70
2023-02-20T10:42:01.044Z,2.40
2023-02-20T10:43:01.038Z,2.80
2023-02-20T10:44:01.021Z,2.70
2023-02-20T10:45:01.035Z,2.40
2023-02-20T10:46:01.065Z,2.80
2023-02-20T10:47:01.059Z,2.50
2023-02-20T10:48:00.965Z,2.90
2023-02-20T10:49:01.615Z,2.60
2023-02-20T10:50:00.944Z,2.60
2023-02-20T10:51:01.548Z,2.90
2023-02-20T10:52:00.960Z,2.60
2023-02-20T10:53:00.930Z,3.00
2023-02-20T10:54:01.042Z,2.60
2023-02-20T10:55:00.934Z,2.80
2023-02-20T10:56:00.900Z,2.50
2023-02-20T10:57:00.892Z,2.50
2023-02-20T10:58:00.873Z,2.40
2023-02-20T10:59:00.840Z,2.60
2023-02-20T11:00:00.825Z,2.70
2023-02-20T11:01:00.883Z,2.30
2023-02-20T11:02:01.043Z,2.60
2023-02-20T11:03:00.798Z,2.70
2023-02-20T11:04:00.823Z,2.70
2023-02-20T11:05:00.792Z,2.50
2023-02-20T11:06:00.762Z,2.80
2023-02-20T11:07:02.406Z,2.90
2023-02-20T11:08:00.838Z,2.80
2023-02-20T11:09:01.518Z,2.50
2023-02-20T11:10:00.697Z,3.20
2023-02-20T11:11:00.981Z,3.10
2023-02-20T11:12:00.707Z,3.00
2023-02-20T11:13:01.277Z,2.80
2023-02-20T11:14:00.781Z,2.80
2023-02-20T11:15:00.693Z,2.60
2023-02-20T11:16:00.670Z,2.50
2023-02-20T11:17:01.841Z,3.20
2023-02-20T11:18:01.105Z,2.80
2023-02-20T11:19:00.795Z,2.70
2023-02-20T11:20:00.784Z,2.80
2023-02-20T11:21:00.709Z,2.80
2023-02-20T11:22:00.806Z,2.60
2023-02-20T11:23:00.575Z,2.50
2023-02-20T11:24:00.555Z,2.70
2023-02-20T11:25:00.554Z,2.70
2023-02-20T11:26:00.535Z,2.60
2023-02-20T11:27:00.682Z,2.80
2023-02-20T11:28:00.555Z,2.80
2023-02-20T11:29:00.540Z,2.80
2023-02-20T11:30:00.507Z,3.00
2023-02-20T11:31:00.529Z,3.10
2023-02-20T11:32:00.496Z,3.20
2023-02-20T11:33:00.459Z,3.00
2023-02-20T11:34:00.429Z,2.60
2023-02-20T11:35:00.724Z,2.90
2023-02-20T11:36:00.430Z,2.80
2023-02-20T11:37:00.425Z,3.00
2023-02-20T11:38:00.398Z,3.00
2023-02-20T11:39:00.396Z,3.00
2023-02-20T11:40:01.222Z,3.00
2023-02-20T11:41:00.370Z,3.10
2023-02-20T11:42:00.368Z,3.70
2023-02-20T11:43:00.356Z,3.40
2023-02-20T11:44:01.551Z,2.60
2023-02-20T11:45:00.355Z,2.90
2023-02-20T11:46:00.355Z,3.00
2023-02-20T11:47:00.340Z,2.70
2023-02-20T11:48:00.273Z,3.00
2023-02-20T11:49:00.271Z,3.00
2023-02-20T11:50:10.269Z,3.00
2023-02-20T11:51:01.302Z,3.10
2023-02-20T11:52:00.247Z,3.20
2023-02-20T11:53:00.250Z,3.20
2023-02-20T11:54:00.227Z,3.10
2023-02-20T11:55:00.201Z,3.00
2023-02-20T11:56:00.459Z,3.20
2023-02-20T11:57:00.231Z,3.30
2023-02-20T11:58:00.170Z,3.00
2023-02-20T11:59:00.160Z,3.30
2023-02-20T12:00:00.138Z,3.10
2023-02-20T12:01:00.167Z,2.90
2023-02-20T12:02:01.273Z,3.20
2023-02-20T12:03:00.397Z,3.20
2023-02-20T12:04:00.165Z,3.40
2023-02-20T12:05:00.153Z,2.90
2023-02-20T12:06:00.081Z,3.40
2023-02-20T12:07:00.105Z,3.30
2023-02-20T12:08:00.075Z,3.20
2023-02-20T12:09:01.966Z,3.80
2023-02-20T12:10:00.024Z,3.40
2023-02-20T12:11:00.027Z,3.00
2023-02-20T12:12:00.003Z,3.10
2023-02-20T12:13:00.022Z,3.20
2023-02-20T12:13:59.988Z,3.20
2023-02-20T12:14:59.986Z,3.40
2023-02-20T12:15:59.984Z,3.20
2023-02-20T12:16:59.972Z,3.20
2023-02-20T12:17:59.943Z,3.10
2023-02-20T12:18:59.941Z,3.00
2023-02-20T12:19:59.906Z,2.90
2023-02-20T12:20:59.938Z,3.00
2023-02-20T12:21:59.876Z,2.90
2023-02-20T12:22:59.910Z,2.70
2023-02-20T12:23:59.892Z,2.80
2023-02-20T12:24:59.917Z,3.00
2023-02-20T12:25:59.835Z,2.90
2023-02-20T12:26:59.838Z,2.70
2023-02-20T12:27:59.808Z,2.50
2023-02-20T12:28:59.854Z,2.80
2023-02-20T12:29:59.784Z,3.00
2023-02-20T12:31:00.249Z,2.70
2023-02-20T12:31:59.829Z,2.80
2023-02-20T12:32:59.814Z,2.30
2023-02-20T12:33:59.759Z,2.80
2023-02-20T12:34:59.784Z,2.90
2023-02-20T12:35:59.722Z,2.70
2023-02-20T12:36:59.724Z,2.80
2023-02-20T12:37:59.695Z,2.70
2023-02-20T12:38:59.726Z,2.70
2023-02-20T12:39:59.684Z,2.50
2023-02-20T12:40:59.724Z,2.70
2023-02-20T12:41:59.739Z,2.80
2023-02-20T12:42:59.716Z,2.30
2023-02-20T12:44:12.374Z,2.60
2023-02-20T12:45:00.660Z,2.70
2023-02-20T12:45:59.615Z,2.60
2023-02-20T12:46:59.677Z,2.50
2023-02-20T12:47:59.596Z,2.80
2023-02-20T12:48:59.985Z,2.60
2023-02-20T12:49:59.577Z,2.50
2023-02-20T12:50:59.632Z,2.70
2023-02-20T12:51:59.620Z,2.90
2023-02-20T12:52:59.557Z,2.60
2023-02-20T12:53:59.510Z,2.80
2023-02-20T12:54:59.526Z,2.90
2023-02-20T12:55:59.498Z,2.80
2023-02-20T12:56:59.518Z,2.60
2023-02-20T12:57:59.466Z,2.70
2023-02-20T12:58:59.485Z,2.80
2023-02-20T12:59:59.454Z,2.50
2023-02-20T13:00:59.480Z,2.70
2023-02-20T13:01:59.440Z,2.90
2023-02-20T13:02:59.456Z,2.60
2023-02-20T13:03:59.459Z,2.70
2023-02-20T13:04:59.418Z,2.90
2023-02-20T13:05:59.409Z,3.00
2023-02-20T13:06:59.376Z,2.70
2023-02-20T13:07:59.413Z,2.70
2023-02-20T13:08:59.346Z,2.70
2023-02-20T13:09:59.356Z,2.60